createdAt,value
2023-03-22T00:00:39.624Z,14.45
2023-03-22T00:03:07.560Z,14.35
2023-03-22T00:05:35.969Z,14.52
2023-03-22T00:08:07.170Z,14.64
2023-03-22T00:10:38.473Z,14.74
2023-03-22T00:13:07.832Z,14.87
2023-03-22T00:15:36.512Z,14.83
2023-03-22T00:18:06.082Z,14.51
2023-03-22T00:20:38.685Z,14.28
2023-03-22T00:23:09.324Z,14.41
2023-03-22T00:25:37.755Z,14.43
2023-03-22T00:28:06.240Z,14.39
2023-03-22T00:30:34.670Z,14.41
2023-03-22T00:33:03.033Z,14.23
2023-03-22T00:35:31.017Z,14.05
2023-03-22T00:38:06.407Z,13.91
2023-03-22T00:40:35.213Z,13.92
2023-03-22T00:43:03.590Z,13.94
2023-03-22T00:45:32.026Z,13.93
2023-03-22T00:48:00.101Z,13.95
2023-03-22T00:50:28.746Z,14.05
2023-03-22T00:52:57.033Z,14.19
2023-03-22T00:55:25.565Z,14.28
2023-03-22T00:57:54.259Z,14.10
2023-03-22T01:00:23.428Z,13.98
2023-03-22T01:02:53.542Z,14.09
2023-03-22T01:05:22.502Z,13.99
2023-03-22T01:07:55.185Z,13.80
2023-03-22T01:10:24.091Z,13.71
2023-03-22T01:12:52.568Z,13.58
2023-03-22T01:15:20.967Z,13.62
2023-03-22T01:17:49.456Z,13.53
2023-03-22T01:20:17.757Z,13.52
2023-03-22T01:22:45.866Z,13.56
2023-03-22T01:25:14.700Z,13.50
2023-03-22T01:27:43.469Z,13.39
2023-03-22T01:30:12.413Z,13.51
2023-03-22T01:32:40.364Z,13.52
2023-03-22T01:35:09.306Z,13.57
2023-03-22T01:37:39.009Z,13.63
2023-03-22T01:40:08.129Z,13.70
2023-03-22T01:42:37.198Z,13.55
2023-03-22T01:45:14.636Z,13.58
2023-03-22T01:48:01.792Z,13.58
2023-03-22T01:50:33.058Z,13.65
2023-03-22T01:53:05.127Z,13.83
2023-03-22T01:55:36.122Z,13.79
2023-03-22T01:58:11.869Z,13.73
2023-03-22T02:00:51.650Z,13.71
2023-03-22T02:03:51.679Z,13.55
2023-03-22T02:06:21.580Z,13.41
2023-03-22T02:08:58.076Z,13.46
2023-03-22T02:12:14.131Z,13.58
2023-03-22T02:15:05.501Z,13.58
2023-03-22T02:18:33.858Z,13.63
2023-03-22T02:21:32.845Z,13.45
2023-03-22T02:24:33.014Z,13.33
2023-03-22T02:27:36.481Z,13.49
2023-03-22T02:30:22.614Z,13.35
2023-03-22T02:33:10.242Z,13.46
2023-03-22T02:35:53.944Z,13.28
2023-03-22T02:38:36.984Z,13.32
2023-03-22T02:41:22.580Z,13.40
2023-03-22T02:44:02.366Z,13.50
2023-03-22T02:47:00.515Z,13.51
2023-03-22T02:49:39.886Z,13.38
2023-03-22T02:52:21.661Z,13.38
2023-03-22T02:54:58.745Z,13.30
2023-03-22T02:57:56.434Z,13.38
2023-03-22T03:00:26.738Z,13.42
2023-03-22T03:03:02.256Z,13.34
2023-03-22T03:05:33.961Z,13.31
2023-03-22T03:08:02.832Z,13.28
2023-03-22T03:10:33.511Z,13.30
2023-03-22T03:13:01.754Z,13.29
2023-03-22T03:15:29.593Z,13.18
2023-03-22T03:18:22.704Z,12.83
2023-03-22T03:21:05.956Z,12.87
2023-03-22T03:23:54.439Z,12.85
2023-03-22T03:26:33.850Z,12.98
2023-03-22T03:29:19.734Z,13.01
2023-03-22T03:32:28.668Z,12.96
2023-03-22T03:35:01.962Z,12.94
2023-03-22T03:37:47.277Z,13.03
2023-03-22T03:40:21.404Z,12.99
2023-03-22T03:42:53.011Z,13.04
2023-03-22T03:45:22.252Z,13.02
2023-03-22T03:47:57.042Z,13.08
2023-03-22T03:50:26.905Z,13.07
2023-03-22T03:52:56.843Z,13.04
2023-03-22T03:55:26.997Z,13.04
2023-03-22T03:57:54.614Z,13.11
2023-03-22T04:00:22.872Z,13.12
2023-03-22T04:03:13.129Z,12.91
2023-03-22T04:06:06.562Z,12.89
2023-03-22T04:08:38.024Z,12.97
2023-03-22T04:11:07.273Z,12.96
2023-03-22T04:13:36.299Z,12.96
2023-03-22T04:16:09.782Z,12.89
2023-03-22T04:18:38.845Z,12.88
2023-03-22T04:21:09.249Z,12.76
2023-03-22T04:23:47.478Z,12.78
2023-03-22T04:26:16.682Z,12.75
2023-03-22T04:28:56.044Z,12.66
2023-03-22T04:31:24.597Z,12.58
2023-03-22T04:34:05.899Z,12.68
2023-03-22T04:36:56.802Z,12.67
2023-03-22T04:39:29.820Z,12.50
2023-03-22T04:42:09.616Z,12.40
2023-03-22T04:44:37.736Z,12.50
2023-03-22T04:47:06.228Z,12.49
2023-03-22T04:49:35.693Z,12.49
2023-03-22T04:52:04.449Z,12.45
2023-03-22T04:54:37.033Z,12.42
2023-03-22T04:57:05.983Z,12.52
2023-03-22T04:59:39.944Z,12.57
2023-03-22T05:02:07.699Z,12.57
2023-03-22T05:04:42.010Z,12.68
2023-03-22T05:07:19.806Z,12.60
2023-03-22T05:09:53.043Z,12.51
2023-03-22T05:12:21.627Z,12.53
2023-03-22T05:15:16.677Z,12.66
2023-03-22T05:17:44.735Z,12.72
2023-03-22T05:20:13.650Z,12.69
2023-03-22T05:22:45.985Z,12.61
2023-03-22T05:25:15.235Z,12.49
2023-03-22T05:27:45.261Z,12.40
2023-03-22T05:30:39.379Z,12.34
2023-03-22T05:33:22.021Z,12.44
2023-03-22T05:35:54.232Z,12.54
2023-03-22T05:38:25.502Z,12.57
2023-03-22T05:40:56.744Z,12.62
2023-03-22T05:43:24.966Z,12.73
2023-03-22T05:45:53.632Z,12.80
2023-03-22T05:48:36.515Z,12.83
2023-03-22T05:51:10.161Z,12.83
2023-03-22T05:53:38.828Z,12.91
2023-03-22T05:56:24.340Z,13.04
2023-03-22T05:58:58.235Z,12.98
2023-03-22T06:01:26.403Z,12.98
2023-03-22T06:04:30.485Z,12.84
2023-03-22T06:07:02.848Z,13.00
2023-03-22T06:09:54.801Z,13.05
2023-03-22T06:12:27.213Z,13.15
2023-03-22T06:15:17.552Z,13.21
2023-03-22T06:18:02.127Z,13.29
2023-03-22T06:20:33.820Z,13.30
2023-03-22T06:23:07.689Z,13.34
2023-03-22T06:25:36.568Z,13.42
2023-03-22T06:28:08.531Z,13.39
2023-03-22T06:30:38.415Z,13.33
2023-03-22T06:33:24.333Z,13.59
2023-03-22T06:35:59.054Z,13.87
2023-03-22T06:38:37.955Z,14.06
2023-03-22T06:41:06.540Z,14.17
2023-03-22T06:43:34.750Z,14.51
2023-03-22T06:46:14.473Z,14.57
2023-03-22T06:48:48.862Z,14.75
2023-03-22T06:51:17.899Z,15.03
2023-03-22T06:53:47.297Z,15.14
2023-03-22T06:56:14.976Z,15.32
2023-03-22T06:58:49.337Z,15.44
2023-03-22T07:01:17.262Z,15.50
2023-03-22T07:03:45.627Z,15.64
2023-03-22T07:06:17.163Z,15.49
2023-03-22T07:08:50.811Z,15.63
2023-03-22T07:11:25.945Z,15.68
2023-03-22T07:13:59.764Z,15.86
2023-03-22T07:16:35.033Z,15.82
2023-03-22T07:19:05.441Z,15.75
2023-03-22T07:21:33.886Z,15.71
2023-03-22T07:24:09.080Z,15.89
2023-03-22T07:26:40.978Z,16.10
2023-03-22T07:29:10.889Z,16.26
2023-03-22T07:31:40.138Z,16.48
2023-03-22T07:34:12.237Z,16.76
2023-03-22T07:36:57.126Z,17.01
2023-03-22T07:39:25.204Z,17.27
2023-03-22T07:41:53.371Z,17.24
2023-03-22T07:44:21.780Z,17.41
2023-03-22T07:47:27.186Z,17.32
2023-03-22T07:50:24.986Z,17.60
2023-03-22T07:52:56.877Z,17.89
2023-03-22T07:55:25.432Z,18.16
2023-03-22T07:57:53.794Z,18.32
2023-03-22T08:00:21.851Z,18.56
2023-03-22T08:03:01.168Z,18.37
2023-03-22T08:05:51.781Z,18.48
2023-03-22T08:08:20.923Z,18.66
2023-03-22T08:10:50.808Z,18.67
2023-03-22T08:13:18.899Z,18.79
2023-03-22T08:15:46.840Z,18.89
2023-03-22T08:18:15.666Z,18.94
2023-03-22T08:20:45.676Z,19.29
2023-03-22T08:23:22.620Z,19.39
2023-03-22T08:26:12.846Z,19.15
2023-03-22T08:28:41.679Z,19.07
2023-03-22T08:31:17.266Z,18.65
2023-03-22T08:33:47.698Z,19.27
2023-03-22T08:36:18.462Z,19.11
2023-03-22T08:38:53.271Z,19.52
2023-03-22T08:41:28.137Z,19.66
2023-03-22T08:43:56.250Z,19.84
2023-03-22T08:46:24.632Z,19.79
2023-03-22T08:48:53.880Z,19.50
2023-03-22T08:51:30.889Z,20.18
2023-03-22T08:54:16.643Z,18.79
2023-03-22T08:56:54.342Z,19.52
2023-03-22T08:59:46.979Z,18.97
2023-03-22T09:02:44.378Z,18.83
2023-03-22T09:05:13.972Z,19.79
2023-03-22T09:07:43.058Z,20.22
2023-03-22T09:10:19.236Z,19.98
2023-03-22T09:12:49.831Z,20.81
2023-03-22T09:15:18.281Z,21.14
2023-03-22T09:17:53.474Z,21.02
2023-03-22T09:20:25.457Z,21.23
2023-03-22T09:22:53.321Z,22.65
2023-03-22T09:25:21.823Z,21.83
2023-03-22T09:27:50.665Z,22.44
2023-03-22T09:30:18.611Z,23.79
2023-03-22T09:32:46.713Z,24.10
2023-03-22T09:35:16.677Z,24.05
2023-03-22T09:37:59.943Z,23.15
2023-03-22T09:40:32.182Z,23.08
2023-03-22T09:43:04.809Z,23.38
2023-03-22T09:45:41.282Z,23.76
2023-03-22T09:48:18.713Z,24.11
2023-03-22T09:50:53.845Z,24.23
2023-03-22T09:53:23.781Z,23.67
2023-03-22T09:56:17.996Z,24.41
2023-03-22T09:58:53.433Z,25.78
2023-03-22T10:01:46.403Z,24.76
2023-03-22T10:04:52.518Z,25.63
2023-03-22T10:07:31.351Z,23.66
2023-03-22T10:10:18.084Z,25.70
2023-03-22T10:13:06.493Z,26.87
2023-03-22T10:15:52.311Z,27.21
2023-03-22T10:18:24.933Z,26.10
2023-03-22T10:21:02.049Z,26.50
2023-03-22T10:23:54.503Z,27.31
2023-03-22T10:26:46.301Z,28.34
2023-03-22T10:29:22.255Z,28.52
2023-03-22T10:31:50.632Z,27.40
2023-03-22T10:34:29.337Z,27.17
2023-03-22T10:37:01.894Z,27.30
2023-03-22T10:39:39.808Z,27.90
2023-03-22T10:42:13.140Z,27.59
2023-03-22T10:45:01.421Z,26.29
2023-03-22T10:47:47.347Z,26.50
2023-03-22T10:50:26.641Z,27.25
2023-03-22T10:53:06.571Z,28.27
2023-03-22T10:55:41.822Z,28.38
2023-03-22T10:58:21.372Z,27.87
2023-03-22T11:00:53.734Z,27.78
2023-03-22T11:03:37.308Z,28.21
2023-03-22T11:06:13.375Z,29.59
2023-03-22T11:08:45.754Z,29.05
2023-03-22T11:11:29.991Z,29.05
2023-03-22T11:14:26.780Z,30.29
2023-03-22T11:17:08.032Z,28.47
2023-03-22T11:19:38.699Z,28.16
2023-03-22T11:22:26.932Z,27.02
2023-03-22T11:24:57.015Z,26.95
2023-03-22T11:27:31.300Z,27.13
2023-03-22T11:30:29.194Z,26.91
2023-03-22T11:33:17.954Z,29.46
2023-03-22T11:35:48.734Z,30.20
2023-03-22T11:38:31.082Z,29.51
2023-03-22T11:41:07.421Z,29.19
2023-03-22T11:43:39.486Z,29.62
2023-03-22T11:46:09.023Z,29.94
2023-03-22T11:48:38.201Z,30.45
2023-03-22T11:51:28.371Z,29.61
2023-03-22T11:54:08.069Z,29.02
2023-03-22T11:56:41.685Z,29.24
2023-03-22T11:59:28.750Z,29.11
2023-03-22T12:02:32.555Z,27.66
2023-03-22T12:05:12.347Z,27.65
2023-03-22T12:07:41.738Z,28.82
2023-03-22T12:10:26.574Z,30.69
2023-03-22T12:12:59.487Z,29.10
2023-03-22T12:15:31.782Z,29.36
2023-03-22T12:18:07.973Z,29.73
2023-03-22T12:20:56.254Z,29.98
2023-03-22T12:23:29.880Z,30.68
2023-03-22T12:26:06.405Z,28.74
2023-03-22T12:28:42.137Z,30.43
2023-03-22T12:31:16.622Z,29.43
2023-03-22T12:33:48.235Z,29.91
2023-03-22T12:36:19.851Z,29.48
2023-03-22T12:39:09.569Z,28.78
2023-03-22T12:41:41.073Z,29.56
2023-03-22T12:44:21.572Z,29.92
2023-03-22T12:46:55.010Z,31.06
2023-03-22T12:49:40.760Z,30.84
2023-03-22T12:52:29.721Z,28.39
2023-03-22T12:55:02.265Z,29.18
2023-03-22T12:57:30.414Z,29.66
2023-03-22T13:00:01.821Z,29.93
2023-03-22T13:02:33.230Z,30.67
2023-03-22T13:05:06.929Z,28.92
2023-03-22T13:07:47.577Z,30.19
2023-03-22T13:10:34.244Z,30.27
2023-03-22T13:13:32.874Z,30.20
2023-03-22T13:16:11.046Z,30.73
2023-03-22T13:18:38.875Z,32.19
2023-03-22T13:21:21.384Z,32.10
2023-03-22T13:24:10.064Z,31.26
2023-03-22T13:26:46.216Z,30.08
2023-03-22T13:29:24.845Z,28.33
2023-03-22T13:32:01.645Z,31.44
2023-03-22T13:34:45.735Z,33.76
2023-03-22T13:37:38.635Z,34.31
2023-03-22T13:40:35.079Z,34.22
2023-03-22T13:43:25.302Z,34.93
2023-03-22T13:46:09.100Z,32.19
2023-03-22T13:48:44.848Z,34.31
2023-03-22T13:51:30.366Z,36.94
2023-03-22T13:54:07.157Z,38.93
2023-03-22T13:56:47.736Z,38.09
2023-03-22T13:59:29.913Z,36.76
2023-03-22T14:02:18.711Z,35.85
2023-03-22T14:04:56.146Z,36.34
2023-03-22T14:07:45.374Z,37.38
2023-03-22T14:10:23.992Z,36.67
2023-03-22T14:13:21.952Z,35.99
2023-03-22T14:15:59.946Z,35.81
2023-03-22T14:18:33.072Z,35.99
2023-03-22T14:21:05.359Z,37.13
